sensor_id;sensor_type;location;lat;lon;timestamp;pressure;altitude;pressure_sealevel;temperature;humidity
36304;BME280;22335;49.800;8.596;2023-01-16T00:00:01;99168.22;;;8.52;60.32
36304;BME280;22335;49.800;8.596;2023-01-16T00:06:46;99130.75;;;8.44;60.31
36304;BME280;22335;49.800;8.596;2023-01-16T00:13:31;99128.31;;;8.42;59.58
36304;BME280;22335;49.800;8.596;2023-01-16T00:20:15;99127.63;;;8.50;59.62
36304;BME280;22335;49.800;8.596;2023-01-16T00:26:59;99109.06;;;8.39;59.83
36304;BME280;22335;49.800;8.596;2023-01-16T00:33:45;99047.22;;;8.12;59.79
36304;BME280;22335;49.800;8.596;2023-01-16T00:40:29;99081.53;;;8.40;59.31
36304;BME280;22335;49.800;8.596;2023-01-16T00:47:13;99054.94;;;8.32;59.47
36304;BME280;22335;49.800;8.596;2023-01-16T00:53:57;99026.94;;;8.18;59.27
36304;BME280;22335;49.800;8.596;2023-01-16T01:00:41;99057.88;;;8.22;59.79
36304;BME280;22335;49.800;8.596;2023-01-16T01:07:45;99015.13;;;8.08;59.43
36304;BME280;22335;49.800;8.596;2023-01-16T01:14:29;99030.25;;;8.15;59.71
36304;BME280;22335;49.800;8.596;2023-01-16T01:21:13;99025.44;;;8.12;60.12
36304;BME280;22335;49.800;8.596;2023-01-16T01:27:56;99005.66;;;8.06;59.79
36304;BME280;22335;49.800;8.596;2023-01-16T01:34:41;99009.28;;;8.15;59.37
36304;BME280;22335;49.800;8.596;2023-01-16T01:41:24;98989.13;;;8.02;60.06
36304;BME280;22335;49.800;8.596;2023-01-16T01:48:18;98959.25;;;7.97;59.44
36304;BME280;22335;49.800;8.596;2023-01-16T01:55:07;98951.47;;;8.04;59.53
36304;BME280;22335;49.800;8.596;2023-01-16T02:01:54;98929.22;;;7.89;59.75
36304;BME280;22335;49.800;8.596;2023-01-16T02:08:38;98918.34;;;7.89;59.83
36304;BME280;22335;49.800;8.596;2023-01-16T02:15:27;98910.88;;;7.94;59.93
36304;BME280;22335;49.800;8.596;2023-01-16T02:22:41;98901.09;;;7.93;59.57
36304;BME280;22335;49.800;8.596;2023-01-16T02:30:20;98866.31;;;7.90;58.98
36304;BME280;22335;49.800;8.596;2023-01-16T02:37:43;98852.19;;;7.88;59.55
36304;BME280;22335;49.800;8.596;2023-01-16T02:44:35;98826.59;;;7.89;59.91
36304;BME280;22335;49.800;8.596;2023-01-16T02:51:29;98804.00;;;7.89;59.04
36304;BME280;22335;49.800;8.596;2023-01-16T02:58:18;98777.72;;;7.84;59.32
36304;BME280;22335;49.800;8.596;2023-01-16T03:05:04;98765.09;;;7.88;58.90
36304;BME280;22335;49.800;8.596;2023-01-16T03:11:59;98757.00;;;7.97;59.16
36304;BME280;22335;49.800;8.596;2023-01-16T03:19:03;98741.16;;;7.99;59.14
36304;BME280;22335;49.800;8.596;2023-01-16T03:25:57;98718.44;;;8.03;59.17
36304;BME280;22335;49.800;8.596;2023-01-16T03:32:46;98682.31;;;7.89;58.98
36304;BME280;22335;49.800;8.596;2023-01-16T03:39:38;98686.34;;;7.92;59.32
36304;BME280;22335;49.800;8.596;2023-01-16T04:01:34;98640.19;;;7.86;59.06
36304;BME280;22335;49.800;8.596;2023-01-16T04:08:26;98636.66;;;7.86;58.34
36304;BME280;22335;49.800;8.596;2023-01-16T04:15:11;98613.63;;;7.83;58.55
36304;BME280;22335;49.800;8.596;2023-01-16T04:21:57;98510.91;;;7.35;58.06
36304;BME280;22335;49.800;8.596;2023-01-16T04:28:41;98578.03;;;7.80;58.23
36304;BME280;22335;49.800;8.596;2023-01-16T04:35:24;98561.34;;;7.73;58.72
36304;BME280;22335;49.800;8.596;2023-01-16T04:42:09;98435.91;;;7.12;58.71
36304;BME280;22335;49.800;8.596;2023-01-16T04:48:53;98504.09;;;7.78;58.62
36304;BME280;22335;49.800;8.596;2023-01-16T04:55:36;98510.22;;;7.92;58.36
36304;BME280;22335;49.800;8.596;2023-01-16T05:02:21;98493.41;;;7.99;58.00
36304;BME280;22335;49.800;8.596;2023-01-16T05:09:06;98441.53;;;7.95;58.19
36304;BME280;22335;49.800;8.596;2023-01-16T05:15:50;98445.88;;;8.14;57.96
36304;BME280;22335;49.800;8.596;2023-01-16T05:22:35;98407.28;;;8.03;57.16
36304;BME280;22335;49.800;8.596;2023-01-16T05:29:18;98407.13;;;8.17;57.60
36304;BME280;22335;49.800;8.596;2023-01-16T05:36:02;98362.13;;;8.11;57.14
36304;BME280;22335;49.800;8.596;2023-01-16T05:42:47;98348.50;;;8.11;57.21
36304;BME280;22335;49.800;8.596;2023-01-16T05:49:30;98326.72;;;8.19;57.68
36304;BME280;22335;49.800;8.596;2023-01-16T05:56:20;98304.94;;;8.28;57.03
36304;BME280;22335;49.800;8.596;2023-01-16T06:03:06;98302.06;;;8.33;56.95
36304;BME280;22335;49.800;8.596;2023-01-16T06:09:50;98285.25;;;8.40;56.70
36304;BME280;22335;49.800;8.596;2023-01-16T06:16:34;98262.47;;;8.44;56.49
36304;BME280;22335;49.800;8.596;2023-01-16T06:23:19;98229.63;;;8.41;56.39
36304;BME280;22335;49.800;8.596;2023-01-16T06:30:02;98223.69;;;8.47;56.50
36304;BME280;22335;49.800;8.596;2023-01-16T06:36:46;98191.63;;;8.53;56.76
36304;BME280;22335;49.800;8.596;2023-01-16T06:43:32;98192.34;;;8.71;56.53
36304;BME280;22335;49.800;8.596;2023-01-16T06:50:15;98168.19;;;8.90;55.04
36304;BME280;22335;49.800;8.596;2023-01-16T06:56:59;98158.34;;;8.98;55.38
36304;BME280;22335;49.800;8.596;2023-01-16T07:03:44;98136.88;;;8.96;55.45
36304;BME280;22335;49.800;8.596;2023-01-16T07:10:27;98130.50;;;8.92;55.83
36304;BME280;22335;49.800;8.596;2023-01-16T07:17:11;98098.31;;;8.86;54.91
36304;BME280;22335;49.800;8.596;2023-01-16T07:24:16;98096.53;;;8.90;54.75
36304;BME280;22335;49.800;8.596;2023-01-16T07:31:02;98078.72;;;8.92;54.45
36304;BME280;22335;49.800;8.596;2023-01-16T07:37:47;98067.16;;;8.95;54.36
36304;BME280;22335;49.800;8.596;2023-01-16T07:44:33;98031.53;;;8.92;53.95
36304;BME280;22335;49.800;8.596;2023-01-16T07:51:16;98020.19;;;8.90;54.06
36304;BME280;22335;49.800;8.596;2023-01-16T07:58:00;98022.44;;;9.09;53.84
36304;BME280;22335;49.800;8.596;2023-01-16T08:04:45;97982.69;;;9.08;54.03
36304;BME280;22335;49.800;8.596;2023-01-16T08:11:28;97990.66;;;9.25;53.78
36304;BME280;22335;49.800;8.596;2023-01-16T08:18:19;97964.03;;;9.10;53.49
36304;BME280;22335;49.800;8.596;2023-01-16T08:25:04;97966.84;;;9.34;53.11
36304;BME280;22335;49.800;8.596;2023-01-16T08:31:48;97926.81;;;9.26;52.63
36304;BME280;22335;49.800;8.596;2023-01-16T08:38:32;97903.19;;;9.30;52.58
36304;BME280;22335;49.800;8.596;2023-01-16T08:45:17;97903.19;;;9.42;53.12
36304;BME280;22335;49.800;8.596;2023-01-16T08:52:18;97866.94;;;9.42;52.40
36304;BME280;22335;49.800;8.596;2023-01-16T08:59:02;97857.97;;;9.41;52.50
36304;BME280;22335;49.800;8.596;2023-01-16T09:05:47;97844.44;;;9.33;52.42
36304;BME280;22335;49.800;8.596;2023-01-16T09:12:31;97852.16;;;9.43;52.93
36304;BME280;22335;49.800;8.596;2023-01-16T09:19:32;97860.91;;;9.24;52.70
36304;BME280;22335;49.800;8.596;2023-01-16T09:26:17;97866.25;;;9.20;53.48
36304;BME280;22335;49.800;8.596;2023-01-16T09:33:01;97853.59;;;9.04;54.29
36304;BME280;22335;49.800;8.596;2023-01-16T09:39:46;97840.06;;;8.95;54.28
36304;BME280;22335;49.800;8.596;2023-01-16T09:46:34;97828.47;;;8.86;54.29
36304;BME280;22335;49.800;8.596;2023-01-16T09:53:32;97840.84;;;8.83;55.04
36304;BME280;22335;49.800;8.596;2023-01-16T10:00:36;97813.34;;;8.76;54.95
36304;BME280;22335;49.800;8.596;2023-01-16T10:07:36;97807.66;;;8.69;55.71
36304;BME280;22335;49.800;8.596;2023-01-16T10:14:41;97784.00;;;8.61;55.74
36304;BME280;22335;49.800;8.596;2023-01-16T10:21:49;97787.19;;;8.63;55.68
36304;BME280;22335;49.800;8.596;2023-01-16T10:28:51;97771.63;;;8.51;56.30
36304;BME280;22335;49.800;8.596;2023-01-16T10:35:43;97748.53;;;8.36;56.24
36304;BME280;22335;49.800;8.596;2023-01-16T10:42:30;97777.34;;;8.37;57.02
36304;BME280;22335;49.800;8.596;2023-01-16T10:49:35;97755.72;;;8.20;58.35
36304;BME280;22335;49.800;8.596;2023-01-16T10:56:18;97659.66;;;7.53;58.60
36304;BME280;22335;49.800;8.596;2023-01-16T11:03:08;97710.69;;;7.89;58.85
36304;BME280;22335;49.800;8.596;2023-01-16T11:09:57;97718.66;;;7.94;59.02
36304;BME280;22335;49.800;8.596;2023-01-16T11:16:43;97703.31;;;7.90;59.81
36304;BME280;22335;49.800;8.596;2023-01-16T11:23:47;97665.09;;;7.86;59.46
36304;BME280;22335;49.800;8.596;2023-01-16T11:30:37;97633.13;;;7.83;59.91
36304;BME280;22335;49.800;8.596;2023-01-16T11:37:22;97613.88;;;7.88;60.15
36304;BME280;22335;49.800;8.596;2023-01-16T11:44:16;97592.56;;;7.90;60.40
36304;BME280;22335;49.800;8.596;2023-01-16T11:51:21;97573.53;;;8.15;59.89
36304;BME280;22335;49.800;8.596;2023-01-16T11:58:11;97530.19;;;8.22;59.73
36304;BME280;22335;49.800;8.596;2023-01-16T12:05:08;97505.47;;;8.39;59.98
36304;BME280;22335;49.800;8.596;2023-01-16T12:12:18;97486.38;;;8.51;59.81
36304;BME280;22335;49.800;8.596;2023-01-16T12:19:46;97470.47;;;8.66;59.39
36304;BME280;22335;49.800;8.596;2023-01-16T12:27:01;97425.94;;;8.74;59.14
36304;BME280;22335;49.800;8.596;2023-01-16T12:34:00;97430.66;;;8.89;58.67
36304;BME280;22335;49.800;8.596;2023-01-16T12:41:09;97385.72;;;8.99;58.06
36304;BME280;22335;49.800;8.596;2023-01-16T12:48:30;97351.00;;;8.96;57.93
36304;BME280;22335;49.800;8.596;2023-01-16T12:55:34;97351.78;;;9.28;57.63
36304;BME280;22335;49.800;8.596;2023-01-16T13:02:36;97304.91;;;9.22;57.25
36304;BME280;22335;49.800;8.596;2023-01-16T13:09:26;97296.91;;;9.30;56.87
36304;BME280;22335;49.800;8.596;2023-01-16T13:16:22;97297.69;;;9.46;56.41
36304;BME280;22335;49.800;8.596;2023-01-16T13:23:13;97288.84;;;9.53;56.11
36304;BME280;22335;49.800;8.596;2023-01-16T13:30:03;97275.38;;;9.60;55.83
36304;BME280;22335;49.800;8.596;2023-01-16T13:44:07;97242.63;;;9.60;55.61
36304;BME280;22335;49.800;8.596;2023-01-16T13:51:13;97225.53;;;9.43;56.42
36304;BME280;22335;49.800;8.596;2023-01-16T13:58:08;97223.94;;;9.42;56.73
36304;BME280;22335;49.800;8.596;2023-01-16T14:05:18;97223.50;;;9.40;57.52
36304;BME280;22335;49.800;8.596;2023-01-16T14:12:18;97189.19;;;9.39;57.27
36304;BME280;22335;49.800;8.596;2023-01-16T14:19:20;97156.91;;;9.41;57.42
36304;BME280;22335;49.800;8.596;2023-01-16T14:26:05;97111.66;;;9.40;56.55
36304;BME280;22335;49.800;8.596;2023-01-16T14:32:53;97106.78;;;9.50;56.44
36304;BME280;22335;49.800;8.596;2023-01-16T14:39:47;97087.97;;;9.64;56.13
36304;BME280;22335;49.800;8.596;2023-01-16T14:46:32;97077.63;;;9.73;55.93
36304;BME280;22335;49.800;8.596;2023-01-16T14:53:34;97044.09;;;9.73;55.79
36304;BME280;22335;49.800;8.596;2023-01-16T15:00:36;97050.16;;;9.85;55.52
36304;BME280;22335;49.800;8.596;2023-01-16T15:07:25;97008.97;;;9.71;55.04
36304;BME280;22335;49.800;8.596;2023-01-16T15:14:14;97030.34;;;9.88;55.34
36304;BME280;22335;49.800;8.596;2023-01-16T15:21:18;97037.03;;;9.72;56.78
36304;BME280;22335;49.800;8.596;2023-01-16T15:28:21;96970.63;;;8.98;57.31
36304;BME280;22335;49.800;8.596;2023-01-16T15:35:13;97049.38;;;9.42;58.22
36304;BME280;22335;49.800;8.596;2023-01-16T15:42:03;97018.41;;;9.12;58.66
36304;BME280;22335;49.800;8.596;2023-01-16T15:49:16;97022.19;;;9.07;59.41
36304;BME280;22335;49.800;8.596;2023-01-16T15:56:17;97027.88;;;9.18;60.16
36304;BME280;22335;49.800;8.596;2023-01-16T16:03:11;97023.69;;;9.24;60.49
36304;BME280;22335;49.800;8.596;2023-01-16T16:09:59;97037.78;;;9.26;60.50
36304;BME280;22335;49.800;8.596;2023-01-16T16:16:59;97009.56;;;8.99;61.27
36304;BME280;22335;49.800;8.596;2023-01-16T16:24:03;97011.66;;;9.06;61.88
36304;BME280;22335;49.800;8.596;2023-01-16T16:30:56;97022.75;;;8.97;62.16
36304;BME280;22335;49.800;8.596;2023-01-16T16:37:43;97012.25;;;8.95;62.39
36304;BME280;22335;49.800;8.596;2023-01-16T16:44:38;97009.72;;;8.87;63.16
36304;BME280;22335;49.800;8.596;2023-01-16T16:51:26;96998.16;;;8.74;63.27
36304;BME280;22335;49.800;8.596;2023-01-16T16:58:14;96998.44;;;8.69;62.81
36304;BME280;22335;49.800;8.596;2023-01-16T17:04:59;96998.00;;;8.67;63.43
36304;BME280;22335;49.800;8.596;2023-01-16T17:11:44;96996.75;;;8.80;63.07
36304;BME280;22335;49.800;8.596;2023-01-16T17:18:28;97008.16;;;8.86;62.68
36304;BME280;22335;49.800;8.596;2023-01-16T17:25:13;97027.72;;;9.11;62.64
36304;BME280;22335;49.800;8.596;2023-01-16T17:32:03;97022.28;;;9.11;62.19
36304;BME280;22335;49.800;8.596;2023-01-16T17:38:48;97017.38;;;9.00;62.10
36304;BME280;22335;49.800;8.596;2023-01-16T17:45:35;97032.69;;;9.05;62.04
36304;BME280;22335;49.800;8.596;2023-01-16T17:52:38;97059.72;;;9.14;62.00
36304;BME280;22335;49.800;8.596;2023-01-16T17:59:21;97062.47;;;9.14;62.16
36304;BME280;22335;49.800;8.596;2023-01-16T18:06:10;97042.28;;;8.99;62.58
36304;BME280;22335;49.800;8.596;2023-01-16T18:12:53;97081.16;;;9.15;61.80
36304;BME280;22335;49.800;8.596;2023-01-16T18:19:56;97075.28;;;9.13;61.92
36304;BME280;22335;49.800;8.596;2023-01-16T18:26:43;97073.38;;;9.14;62.11
36304;BME280;22335;49.800;8.596;2023-01-16T18:33:27;97066.63;;;9.08;61.60
36304;BME280;22335;49.800;8.596;2023-01-16T18:40:12;97095.03;;;9.26;61.73
36304;BME280;22335;49.800;8.596;2023-01-16T18:47:16;97107.06;;;9.06;62.41
36304;BME280;22335;49.800;8.596;2023-01-16T18:54:19;97119.06;;;8.85;62.52
36304;BME280;22335;49.800;8.596;2023-01-16T19:01:21;97130.97;;;8.77;62.44
36304;BME280;22335;49.800;8.596;2023-01-16T19:08:24;97134.63;;;8.85;61.82
36304;BME280;22335;49.800;8.596;2023-01-16T19:15:09;97151.38;;;9.03;61.27
36304;BME280;22335;49.800;8.596;2023-01-16T19:21:57;97139.22;;;8.81;60.99
36304;BME280;22335;49.800;8.596;2023-01-16T19:28:43;97158.53;;;8.91;60.85
36304;BME280;22335;49.800;8.596;2023-01-16T19:35:27;97168.94;;;8.86;60.99
36304;BME280;22335;49.800;8.596;2023-01-16T19:42:10;97197.75;;;8.87;60.90
36304;BME280;22335;49.800;8.596;2023-01-16T19:49:12;97212.63;;;8.89;60.86
36304;BME280;22335;49.800;8.596;2023-01-16T19:55:56;97229.56;;;8.98;60.24
36304;BME280;22335;49.800;8.596;2023-01-16T20:02:39;97237.47;;;8.88;60.21
36304;BME280;22335;49.800;8.596;2023-01-16T20:09:24;97215.16;;;8.66;60.21
36304;BME280;22335;49.800;8.596;2023-01-16T20:16:07;97233.81;;;8.80;60.36
36304;BME280;22335;49.800;8.596;2023-01-16T20:22:51;97252.34;;;8.74;60.29
36304;BME280;22335;49.800;8.596;2023-01-16T20:29:36;97266.06;;;8.78;60.55
36304;BME280;22335;49.800;8.596;2023-01-16T20:36:19;97255.75;;;8.56;60.58
36304;BME280;22335;49.800;8.596;2023-01-16T20:43:02;97276.06;;;8.58;60.84
36304;BME280;22335;49.800;8.596;2023-01-16T20:50:08;97280.97;;;8.52;60.64
36304;BME280;22335;49.800;8.596;2023-01-16T20:56:53;97276.13;;;8.46;61.22
36304;BME280;22335;49.800;8.596;2023-01-16T21:03:37;97293.34;;;8.50;60.85
36304;BME280;22335;49.800;8.596;2023-01-16T21:10:22;97293.63;;;8.61;60.40
36304;BME280;22335;49.800;8.596;2023-01-16T21:17:06;97313.69;;;8.68;60.73
36304;BME280;22335;49.800;8.596;2023-01-16T21:24:08;97324.16;;;8.82;59.96
36304;BME280;22335;49.800;8.596;2023-01-16T21:30:53;97346.59;;;8.91;59.93
36304;BME280;22335;49.800;8.596;2023-01-16T21:37:36;97338.47;;;8.79;59.64
36304;BME280;22335;49.800;8.596;2023-01-16T21:44:20;97374.03;;;8.98;59.84
36304;BME280;22335;49.800;8.596;2023-01-16T21:51:22;97366.81;;;8.90;59.39
36304;BME280;22335;49.800;8.596;2023-01-16T21:58:09;97389.41;;;8.91;59.43
36304;BME280;22335;49.800;8.596;2023-01-16T22:04:52;97407.63;;;9.03;59.66
36304;BME280;22335;49.800;8.596;2023-01-16T22:11:37;97407.47;;;9.11;59.13
36304;BME280;22335;49.800;8.596;2023-01-16T22:18:38;97412.38;;;9.06;58.76
36304;BME280;22335;49.800;8.596;2023-01-16T22:25:24;97427.25;;;9.08;58.45
36304;BME280;22335;49.800;8.596;2023-01-16T22:32:09;97320.97;;;8.36;58.61
36304;BME280;22335;49.800;8.596;2023-01-16T22:38:53;97420.03;;;9.00;58.23
36304;BME280;22335;49.800;8.596;2023-01-16T22:45:37;97439.13;;;9.16;58.31
36304;BME280;22335;49.800;8.596;2023-01-16T22:52:39;97447.41;;;9.19;58.02
36304;BME280;22335;49.800;8.596;2023-01-16T22:59:22;97435.88;;;9.10;57.69
36304;BME280;22335;49.800;8.596;2023-01-16T23:06:06;97461.41;;;9.18;58.23
36304;BME280;22335;49.800;8.596;2023-01-16T23:12:51;97459.38;;;9.15;57.90
36304;BME280;22335;49.800;8.596;2023-01-16T23:19:34;97477.25;;;9.28;57.71
36304;BME280;22335;49.800;8.596;2023-01-16T23:26:19;97467.88;;;9.13;57.09
36304;BME280;22335;49.800;8.596;2023-01-16T23:33:04;97497.81;;;9.26;57.48
36304;BME280;22335;49.800;8.596;2023-01-16T23:39:49;97498.50;;;9.22;56.83
36304;BME280;22335;49.800;8.596;2023-01-16T23:46:35;97502.94;;;9.27;56.73
36304;BME280;22335;49.800;8.596;2023-01-16T23:53:22;97501.78;;;9.28;56.55
